sensor_id;sensor_type;location;lat;lon;timestamp;P1;durP1;ratioP1;P2;durP2;ratioP2
84254;SDS011;74400;44.692;18.998;2024-02-14T00:00:05;8.40;;;3.85;;
84254;SDS011;74400;44.692;18.998;2024-02-14T00:02:32;6.70;;;3.53;;
84254;SDS011;74400;44.692;18.998;2024-02-14T00:04:58;7.32;;;4.25;;
84254;SDS011;74400;44.692;18.998;2024-02-14T00:07:25;5.10;;;3.45;;
84254;SDS011;74400;44.692;18.998;2024-02-14T00:09:52;6.50;;;3.50;;
84254;SDS011;74400;44.692;18.998;2024-02-14T00:12:17;6.60;;;3.90;;
84254;SDS011;74400;44.692;18.998;2024-02-14T00:14:43;5.40;;;3.40;;
84254;SDS011;74400;44.692;18.998;2024-02-14T00:17:09;5.38;;;3.28;;
84254;SDS011;74400;44.692;18.998;2024-02-14T00:19:35;9.15;;;4.13;;
84254;SDS011;74400;44.692;18.998;2024-02-14T00:22:01;6.25;;;3.67;;
84254;SDS011;74400;44.692;18.998;2024-02-14T00:24:27;5.47;;;3.58;;
84254;SDS011;74400;44.692;18.998;2024-02-14T00:26:54;5.35;;;3.30;;
84254;SDS011;74400;44.692;18.998;2024-02-14T00:29:22;7.53;;;3.67;;
84254;SDS011;74400;44.692;18.998;2024-02-14T00:31:48;6.82;;;3.85;;
84254;SDS011;74400;44.692;18.998;2024-02-14T00:34:14;6.97;;;3.33;;
84254;SDS011;74400;44.692;18.998;2024-02-14T00:36:40;7.28;;;3.80;;
84254;SDS011;74400;44.692;18.998;2024-02-14T00:39:05;7.65;;;4.18;;
84254;SDS011;74400;44.692;18.998;2024-02-14T00:41:32;7.75;;;4.25;;
84254;SDS011;74400;44.692;18.998;2024-02-14T00:43:58;7.85;;;3.80;;
84254;SDS011;74400;44.692;18.998;2024-02-14T00:46:23;8.27;;;4.43;;
84254;SDS011;74400;44.692;18.998;2024-02-14T00:48:49;7.85;;;3.88;;
84254;SDS011;74400;44.692;18.998;2024-02-14T00:51:15;7.20;;;4.07;;
84254;SDS011;74400;44.692;18.998;2024-02-14T00:53:41;7.88;;;3.83;;
84254;SDS011;74400;44.692;18.998;2024-02-14T00:56:07;6.22;;;3.90;;
84254;SDS011;74400;44.692;18.998;2024-02-14T00:58:33;6.70;;;4.05;;
84254;SDS011;74400;44.692;18.998;2024-02-14T01:00:59;6.50;;;3.63;;
84254;SDS011;74400;44.692;18.998;2024-02-14T01:03:24;5.60;;;3.50;;
84254;SDS011;74400;44.692;18.998;2024-02-14T01:05:50;7.50;;;3.80;;
84254;SDS011;74400;44.692;18.998;2024-02-14T01:08:16;5.95;;;3.28;;
84254;SDS011;74400;44.692;18.998;2024-02-14T01:10:42;4.53;;;3.40;;
84254;SDS011;74400;44.692;18.998;2024-02-14T01:13:08;5.80;;;3.30;;
84254;SDS011;74400;44.692;18.998;2024-02-14T01:15:34;6.40;;;3.08;;
84254;SDS011;74400;44.692;18.998;2024-02-14T01:18:00;6.45;;;3.42;;
84254;SDS011;74400;44.692;18.998;2024-02-14T01:20:25;4.85;;;3.47;;
84254;SDS011;74400;44.692;18.998;2024-02-14T01:22:51;5.90;;;3.67;;
84254;SDS011;74400;44.692;18.998;2024-02-14T01:25:16;4.13;;;3.25;;
84254;SDS011;74400;44.692;18.998;2024-02-14T01:27:42;4.93;;;3.33;;
84254;SDS011;74400;44.692;18.998;2024-02-14T01:30:08;8.48;;;4.00;;
84254;SDS011;74400;44.692;18.998;2024-02-14T01:32:35;7.82;;;4.72;;
84254;SDS011;74400;44.692;18.998;2024-02-14T01:35:01;11.27;;;5.28;;
84254;SDS011;74400;44.692;18.998;2024-02-14T01:37:29;7.93;;;4.63;;
84254;SDS011;74400;44.692;18.998;2024-02-14T01:39:55;8.85;;;4.70;;
84254;SDS011;74400;44.692;18.998;2024-02-14T01:42:21;9.20;;;4.85;;
84254;SDS011;74400;44.692;18.998;2024-02-14T01:44:46;7.70;;;4.60;;
84254;SDS011;74400;44.692;18.998;2024-02-14T01:47:12;6.90;;;4.15;;
84254;SDS011;74400;44.692;18.998;2024-02-14T01:49:38;6.68;;;3.83;;
84254;SDS011;74400;44.692;18.998;2024-02-14T01:52:04;8.70;;;4.05;;
84254;SDS011;74400;44.692;18.998;2024-02-14T01:54:31;7.07;;;3.67;;
84254;SDS011;74400;44.692;18.998;2024-02-14T01:56:57;9.00;;;3.97;;
84254;SDS011;74400;44.692;18.998;2024-02-14T01:59:26;7.47;;;3.85;;
84254;SDS011;74400;44.692;18.998;2024-02-14T02:01:52;7.15;;;4.10;;
84254;SDS011;74400;44.692;18.998;2024-02-14T02:04:18;7.72;;;3.90;;
84254;SDS011;74400;44.692;18.998;2024-02-14T02:06:44;8.55;;;4.32;;
84254;SDS011;74400;44.692;18.998;2024-02-14T02:09:10;8.27;;;3.88;;
84254;SDS011;74400;44.692;18.998;2024-02-14T02:11:45;5.95;;;4.07;;
84254;SDS011;74400;44.692;18.998;2024-02-14T02:14:13;8.10;;;3.67;;
84254;SDS011;74400;44.692;18.998;2024-02-14T02:16:39;7.70;;;3.50;;
84254;SDS011;74400;44.692;18.998;2024-02-14T02:19:05;9.32;;;4.00;;
84254;SDS011;74400;44.692;18.998;2024-02-14T02:21:33;10.70;;;4.28;;
84254;SDS011;74400;44.692;18.998;2024-02-14T02:24:00;7.97;;;3.75;;
84254;SDS011;74400;44.692;18.998;2024-02-14T02:26:26;5.70;;;3.53;;
84254;SDS011;74400;44.692;18.998;2024-02-14T02:28:52;5.63;;;3.45;;
84254;SDS011;74400;44.692;18.998;2024-02-14T02:31:18;5.15;;;3.33;;
84254;SDS011;74400;44.692;18.998;2024-02-14T02:33:44;5.40;;;3.40;;
84254;SDS011;74400;44.692;18.998;2024-02-14T02:36:10;8.65;;;3.80;;
84254;SDS011;74400;44.692;18.998;2024-02-14T02:38:36;7.20;;;3.40;;
84254;SDS011;74400;44.692;18.998;2024-02-14T02:41:02;5.20;;;3.05;;
84254;SDS011;74400;44.692;18.998;2024-02-14T02:43:34;7.30;;;3.50;;
84254;SDS011;74400;44.692;18.998;2024-02-14T02:46:00;5.97;;;2.92;;
84254;SDS011;74400;44.692;18.998;2024-02-14T02:48:26;5.53;;;3.50;;
84254;SDS011;74400;44.692;18.998;2024-02-14T02:50:52;4.57;;;3.25;;
84254;SDS011;74400;44.692;18.998;2024-02-14T02:53:18;6.90;;;3.72;;
84254;SDS011;74400;44.692;18.998;2024-02-14T02:55:45;7.32;;;3.88;;
84254;SDS011;74400;44.692;18.998;2024-02-14T02:58:11;7.00;;;4.00;;
84254;SDS011;74400;44.692;18.998;2024-02-14T03:00:37;6.30;;;3.88;;
84254;SDS011;74400;44.692;18.998;2024-02-14T03:03:02;7.32;;;3.53;;
84254;SDS011;74400;44.692;18.998;2024-02-14T03:05:30;4.78;;;3.10;;
84254;SDS011;74400;44.692;18.998;2024-02-14T03:07:58;4.32;;;3.85;;
84254;SDS011;74400;44.692;18.998;2024-02-14T03:10:24;3.83;;;2.97;;
84254;SDS011;74400;44.692;18.998;2024-02-14T03:12:51;4.93;;;3.58;;
84254;SDS011;74400;44.692;18.998;2024-02-14T03:15:17;5.90;;;3.60;;
84254;SDS011;74400;44.692;18.998;2024-02-14T03:17:45;5.93;;;3.50;;
84254;SDS011;74400;44.692;18.998;2024-02-14T03:20:11;5.95;;;3.50;;
84254;SDS011;74400;44.692;18.998;2024-02-14T03:22:40;5.53;;;3.92;;
84254;SDS011;74400;44.692;18.998;2024-02-14T03:25:12;5.95;;;3.78;;
84254;SDS011;74400;44.692;18.998;2024-02-14T03:27:41;4.90;;;3.60;;
84254;SDS011;74400;44.692;18.998;2024-02-14T03:30:07;4.78;;;3.17;;
84254;SDS011;74400;44.692;18.998;2024-02-14T03:32:33;6.53;;;3.50;;
84254;SDS011;74400;44.692;18.998;2024-02-14T03:34:59;5.38;;;3.50;;
84254;SDS011;74400;44.692;18.998;2024-02-14T03:37:26;4.65;;;3.58;;
84254;SDS011;74400;44.692;18.998;2024-02-14T03:39:52;5.88;;;3.58;;
84254;SDS011;74400;44.692;18.998;2024-02-14T03:42:18;6.18;;;3.70;;
84254;SDS011;74400;44.692;18.998;2024-02-14T03:44:45;5.78;;;3.70;;
84254;SDS011;74400;44.692;18.998;2024-02-14T03:47:11;4.50;;;3.10;;
84254;SDS011;74400;44.692;18.998;2024-02-14T03:49:38;6.80;;;3.65;;
84254;SDS011;74400;44.692;18.998;2024-02-14T03:52:06;6.93;;;3.28;;
84254;SDS011;74400;44.692;18.998;2024-02-14T03:54:32;6.18;;;3.70;;
84254;SDS011;74400;44.692;18.998;2024-02-14T03:56:58;6.57;;;3.50;;
84254;SDS011;74400;44.692;18.998;2024-02-14T03:59:23;5.80;;;3.35;;
84254;SDS011;74400;44.692;18.998;2024-02-14T04:01:49;8.55;;;3.75;;
84254;SDS011;74400;44.692;18.998;2024-02-14T04:04:18;5.97;;;3.10;;
84254;SDS011;74400;44.692;18.998;2024-02-14T04:06:44;6.35;;;3.67;;
84254;SDS011;74400;44.692;18.998;2024-02-14T04:09:11;5.43;;;3.58;;
84254;SDS011;74400;44.692;18.998;2024-02-14T04:11:36;6.88;;;3.63;;
84254;SDS011;74400;44.692;18.998;2024-02-14T04:14:02;6.93;;;3.67;;
84254;SDS011;74400;44.692;18.998;2024-02-14T04:16:28;5.47;;;3.35;;
84254;SDS011;74400;44.692;18.998;2024-02-14T04:18:53;6.40;;;3.35;;
84254;SDS011;74400;44.692;18.998;2024-02-14T04:21:21;4.85;;;3.00;;
84254;SDS011;74400;44.692;18.998;2024-02-14T04:23:47;5.53;;;3.40;;
84254;SDS011;74400;44.692;18.998;2024-02-14T04:26:21;6.65;;;3.63;;
84254;SDS011;74400;44.692;18.998;2024-02-14T04:28:47;4.47;;;3.55;;
84254;SDS011;74400;44.692;18.998;2024-02-14T04:31:13;5.57;;;3.58;;
84254;SDS011;74400;44.692;18.998;2024-02-14T04:33:39;5.13;;;3.50;;
84254;SDS011;74400;44.692;18.998;2024-02-14T04:36:05;5.97;;;3.78;;
84254;SDS011;74400;44.692;18.998;2024-02-14T04:38:31;5.18;;;3.35;;
84254;SDS011;74400;44.692;18.998;2024-02-14T04:40:57;6.22;;;3.58;;
84254;SDS011;74400;44.692;18.998;2024-02-14T04:43:24;4.38;;;2.97;;
84254;SDS011;74400;44.692;18.998;2024-02-14T04:45:52;5.90;;;3.08;;
84254;SDS011;74400;44.692;18.998;2024-02-14T04:48:18;6.70;;;3.67;;
84254;SDS011;74400;44.692;18.998;2024-02-14T04:50:43;5.10;;;3.63;;
84254;SDS011;74400;44.692;18.998;2024-02-14T04:53:09;3.95;;;3.17;;
84254;SDS011;74400;44.692;18.998;2024-02-14T04:55:35;5.15;;;3.40;;
84254;SDS011;74400;44.692;18.998;2024-02-14T04:58:01;6.25;;;3.85;;
84254;SDS011;74400;44.692;18.998;2024-02-14T05:00:27;5.50;;;3.80;;
84254;SDS011;74400;44.692;18.998;2024-02-14T05:02:53;5.70;;;3.50;;
84254;SDS011;74400;44.692;18.998;2024-02-14T05:05:18;7.13;;;3.25;;
84254;SDS011;74400;44.692;18.998;2024-02-14T05:07:45;8.25;;;3.95;;
84254;SDS011;74400;44.692;18.998;2024-02-14T05:10:11;5.80;;;3.28;;
84254;SDS011;74400;44.692;18.998;2024-02-14T05:12:37;5.63;;;3.50;;
84254;SDS011;74400;44.692;18.998;2024-02-14T05:15:03;6.28;;;3.97;;
84254;SDS011;74400;44.692;18.998;2024-02-14T05:17:29;5.18;;;3.63;;
84254;SDS011;74400;44.692;18.998;2024-02-14T05:19:55;5.68;;;3.33;;
84254;SDS011;74400;44.692;18.998;2024-02-14T05:22:22;5.68;;;3.70;;
84254;SDS011;74400;44.692;18.998;2024-02-14T05:24:48;6.53;;;3.72;;
84254;SDS011;74400;44.692;18.998;2024-02-14T05:27:14;6.30;;;3.95;;
84254;SDS011;74400;44.692;18.998;2024-02-14T05:29:39;5.60;;;3.60;;
84254;SDS011;74400;44.692;18.998;2024-02-14T05:32:05;6.85;;;4.20;;
84254;SDS011;74400;44.692;18.998;2024-02-14T05:34:31;9.80;;;5.00;;
84254;SDS011;74400;44.692;18.998;2024-02-14T05:36:57;5.72;;;3.75;;
84254;SDS011;74400;44.692;18.998;2024-02-14T05:39:22;12.60;;;4.82;;
84254;SDS011;74400;44.692;18.998;2024-02-14T05:41:48;6.00;;;3.80;;
84254;SDS011;74400;44.692;18.998;2024-02-14T05:44:14;9.18;;;4.22;;
84254;SDS011;74400;44.692;18.998;2024-02-14T05:46:40;6.25;;;3.67;;
84254;SDS011;74400;44.692;18.998;2024-02-14T05:51:34;9.93;;;4.93;;
84254;SDS011;74400;44.692;18.998;2024-02-14T05:54:00;9.45;;;5.75;;
84254;SDS011;74400;44.692;18.998;2024-02-14T05:56:26;10.30;;;5.53;;
84254;SDS011;74400;44.692;18.998;2024-02-14T05:58:51;11.00;;;5.40;;
84254;SDS011;74400;44.692;18.998;2024-02-14T06:01:18;8.02;;;4.93;;
84254;SDS011;74400;44.692;18.998;2024-02-14T06:03:43;9.25;;;4.47;;
84254;SDS011;74400;44.692;18.998;2024-02-14T06:06:09;6.30;;;4.07;;
84254;SDS011;74400;44.692;18.998;2024-02-14T06:08:35;7.82;;;4.30;;
84254;SDS011;74400;44.692;18.998;2024-02-14T06:11:00;5.68;;;3.67;;
84254;SDS011;74400;44.692;18.998;2024-02-14T06:13:26;7.00;;;4.03;;
84254;SDS011;74400;44.692;18.998;2024-02-14T06:15:51;6.40;;;3.83;;
84254;SDS011;74400;44.692;18.998;2024-02-14T06:18:17;8.63;;;4.00;;
84254;SDS011;74400;44.692;18.998;2024-02-14T06:20:43;7.00;;;3.63;;
84254;SDS011;74400;44.692;18.998;2024-02-14T06:23:08;5.55;;;3.53;;
84254;SDS011;74400;44.692;18.998;2024-02-14T06:25:34;7.00;;;4.10;;
84254;SDS011;74400;44.692;18.998;2024-02-14T06:28:00;7.50;;;4.05;;
84254;SDS011;74400;44.692;18.998;2024-02-14T06:30:28;5.63;;;3.85;;
84254;SDS011;74400;44.692;18.998;2024-02-14T06:32:54;9.80;;;4.75;;
84254;SDS011;74400;44.692;18.998;2024-02-14T06:35:21;6.55;;;3.70;;
84254;SDS011;74400;44.692;18.998;2024-02-14T06:37:47;6.60;;;3.63;;
84254;SDS011;74400;44.692;18.998;2024-02-14T06:40:12;8.90;;;3.95;;
84254;SDS011;74400;44.692;18.998;2024-02-14T06:42:38;6.60;;;4.07;;
84254;SDS011;74400;44.692;18.998;2024-02-14T06:45:06;11.18;;;4.00;;
84254;SDS011;74400;44.692;18.998;2024-02-14T06:47:32;6.25;;;4.22;;
84254;SDS011;74400;44.692;18.998;2024-02-14T06:49:59;6.07;;;3.22;;
84254;SDS011;74400;44.692;18.998;2024-02-14T06:52:25;7.07;;;3.88;;
84254;SDS011;74400;44.692;18.998;2024-02-14T06:54:51;8.65;;;4.28;;
84254;SDS011;74400;44.692;18.998;2024-02-14T06:57:17;8.70;;;3.97;;
84254;SDS011;74400;44.692;18.998;2024-02-14T06:59:43;9.57;;;4.38;;
84254;SDS011;74400;44.692;18.998;2024-02-14T07:02:08;9.65;;;5.22;;
84254;SDS011;74400;44.692;18.998;2024-02-14T07:04:34;8.38;;;4.25;;
84254;SDS011;74400;44.692;18.998;2024-02-14T07:07:00;7.55;;;4.25;;
84254;SDS011;74400;44.692;18.998;2024-02-14T07:09:26;8.02;;;4.15;;
84254;SDS011;74400;44.692;18.998;2024-02-14T07:11:51;8.20;;;4.15;;
84254;SDS011;74400;44.692;18.998;2024-02-14T07:14:19;10.43;;;4.00;;
84254;SDS011;74400;44.692;18.998;2024-02-14T07:16:45;9.50;;;4.82;;
84254;SDS011;74400;44.692;18.998;2024-02-14T07:19:10;7.60;;;4.07;;
84254;SDS011;74400;44.692;18.998;2024-02-14T07:21:36;9.88;;;4.45;;
84254;SDS011;74400;44.692;18.998;2024-02-14T07:24:03;6.22;;;4.07;;
84254;SDS011;74400;44.692;18.998;2024-02-14T07:26:30;6.05;;;3.90;;
84254;SDS011;74400;44.692;18.998;2024-02-14T07:28:56;6.28;;;4.32;;
84254;SDS011;74400;44.692;18.998;2024-02-14T07:31:22;6.82;;;4.10;;
84254;SDS011;74400;44.692;18.998;2024-02-14T07:33:48;7.43;;;4.28;;
84254;SDS011;74400;44.692;18.998;2024-02-14T07:36:14;4.93;;;3.80;;
84254;SDS011;74400;44.692;18.998;2024-02-14T07:38:41;5.22;;;3.70;;
84254;SDS011;74400;44.692;18.998;2024-02-14T07:41:08;8.40;;;4.57;;
84254;SDS011;74400;44.692;18.998;2024-02-14T07:43:34;6.30;;;4.70;;
84254;SDS011;74400;44.692;18.998;2024-02-14T07:45:59;6.22;;;4.18;;
84254;SDS011;74400;44.692;18.998;2024-02-14T07:48:25;6.68;;;4.28;;
84254;SDS011;74400;44.692;18.998;2024-02-14T07:50:51;4.80;;;4.10;;
84254;SDS011;74400;44.692;18.998;2024-02-14T07:53:17;6.88;;;4.30;;
84254;SDS011;74400;44.692;18.998;2024-02-14T07:55:43;4.35;;;3.28;;
84254;SDS011;74400;44.692;18.998;2024-02-14T07:58:08;4.90;;;3.92;;
84254;SDS011;74400;44.692;18.998;2024-02-14T08:00:34;5.25;;;4.18;;
84254;SDS011;74400;44.692;18.998;2024-02-14T08:02:59;5.68;;;4.10;;
84254;SDS011;74400;44.692;18.998;2024-02-14T08:05:28;5.53;;;3.70;;
84254;SDS011;74400;44.692;18.998;2024-02-14T08:07:54;7.78;;;4.07;;
84254;SDS011;74400;44.692;18.998;2024-02-14T08:10:20;6.20;;;3.50;;
84254;SDS011;74400;44.692;18.998;2024-02-14T08:12:46;6.15;;;4.47;;
84254;SDS011;74400;44.692;18.998;2024-02-14T08:15:12;7.15;;;3.90;;
84254;SDS011;74400;44.692;18.998;2024-02-14T08:17:38;7.65;;;4.00;;
84254;SDS011;74400;44.692;18.998;2024-02-14T08:20:04;4.22;;;3.70;;
84254;SDS011;74400;44.692;18.998;2024-02-14T08:22:30;7.43;;;4.25;;
84254;SDS011;74400;44.692;18.998;2024-02-14T08:24:57;5.25;;;3.88;;
84254;SDS011;74400;44.692;18.998;2024-02-14T08:27:23;6.47;;;3.95;;
84254;SDS011;74400;44.692;18.998;2024-02-14T08:29:49;5.65;;;3.88;;
84254;SDS011;74400;44.692;18.998;2024-02-14T08:32:15;4.30;;;3.22;;
84254;SDS011;74400;44.692;18.998;2024-02-14T08:34:40;4.38;;;3.95;;
84254;SDS011;74400;44.692;18.998;2024-02-14T08:37:06;6.50;;;4.15;;
84254;SDS011;74400;44.692;18.998;2024-02-14T08:39:34;4.85;;;4.10;;
84254;SDS011;74400;44.692;18.998;2024-02-14T08:42:01;5.85;;;4.22;;
84254;SDS011;74400;44.692;18.998;2024-02-14T08:44:32;4.40;;;3.70;;
84254;SDS011;74400;44.692;18.998;2024-02-14T08:46:59;5.45;;;4.03;;
84254;SDS011;74400;44.692;18.998;2024-02-14T08:49:25;6.88;;;4.55;;
84254;SDS011;74400;44.692;18.998;2024-02-14T08:51:51;5.95;;;4.43;;
84254;SDS011;74400;44.692;18.998;2024-02-14T08:54:17;6.10;;;4.68;;
84254;SDS011;74400;44.692;18.998;2024-02-14T08:56:43;7.97;;;4.80;;
84254;SDS011;74400;44.692;18.998;2024-02-14T08:59:08;6.70;;;4.55;;
84254;SDS011;74400;44.692;18.998;2024-02-14T09:01:36;5.95;;;4.60;;
84254;SDS011;74400;44.692;18.998;2024-02-14T09:04:01;5.20;;;4.40;;
84254;SDS011;74400;44.692;18.998;2024-02-14T09:06:27;6.32;;;4.40;;
84254;SDS011;74400;44.692;18.998;2024-02-14T09:08:53;5.72;;;4.25;;
84254;SDS011;74400;44.692;18.998;2024-02-14T09:11:18;4.80;;;4.10;;
84254;SDS011;74400;44.692;18.998;2024-02-14T09:13:45;5.13;;;4.18;;
84254;SDS011;74400;44.692;18.998;2024-02-14T09:16:13;5.97;;;4.00;;
84254;SDS011;74400;44.692;18.998;2024-02-14T09:18:40;6.43;;;4.13;;
84254;SDS011;74400;44.692;18.998;2024-02-14T09:23:34;5.75;;;4.50;;
84254;SDS011;74400;44.692;18.998;2024-02-14T09:26:00;7.47;;;4.90;;
84254;SDS011;74400;44.692;18.998;2024-02-14T09:28:26;8.07;;;5.03;;
84254;SDS011;74400;44.692;18.998;2024-02-14T09:30:52;8.43;;;6.38;;
84254;SDS011;74400;44.692;18.998;2024-02-14T09:33:18;6.57;;;5.60;;
84254;SDS011;74400;44.692;18.998;2024-02-14T09:35:45;6.03;;;4.53;;
84254;SDS011;74400;44.692;18.998;2024-02-14T09:38:14;6.82;;;4.47;;
84254;SDS011;74400;44.692;18.998;2024-02-14T09:40:41;6.93;;;4.88;;
84254;SDS011;74400;44.692;18.998;2024-02-14T09:43:31;6.03;;;4.45;;
84254;SDS011;74400;44.692;18.998;2024-02-14T09:46:01;5.28;;;4.38;;
84254;SDS011;74400;44.692;18.998;2024-02-14T09:48:29;7.50;;;4.45;;
84254;SDS011;74400;44.692;18.998;2024-02-14T09:50:55;5.85;;;4.55;;
84254;SDS011;74400;44.692;18.998;2024-02-14T09:53:22;6.35;;;4.15;;
84254;SDS011;74400;44.692;18.998;2024-02-14T09:55:49;5.72;;;4.40;;
84254;SDS011;74400;44.692;18.998;2024-02-14T09:58:15;7.47;;;5.20;;
84254;SDS011;74400;44.692;18.998;2024-02-14T10:00:42;6.32;;;4.88;;
84254;SDS011;74400;44.692;18.998;2024-02-14T10:03:08;7.72;;;5.43;;
84254;SDS011;74400;44.692;18.998;2024-02-14T10:05:34;8.82;;;4.43;;
84254;SDS011;74400;44.692;18.998;2024-02-14T10:08:00;6.18;;;4.97;;
84254;SDS011;74400;44.692;18.998;2024-02-14T10:10:26;8.57;;;5.38;;
84254;SDS011;74400;44.692;18.998;2024-02-14T10:12:56;7.45;;;4.85;;
84254;SDS011;74400;44.692;18.998;2024-02-14T10:15:23;7.68;;;5.50;;
84254;SDS011;74400;44.692;18.998;2024-02-14T10:17:49;6.95;;;4.82;;
84254;SDS011;74400;44.692;18.998;2024-02-14T10:20:17;8.27;;;5.18;;
84254;SDS011;74400;44.692;18.998;2024-02-14T10:22:43;11.43;;;5.82;;
84254;SDS011;74400;44.692;18.998;2024-02-14T10:25:11;9.32;;;5.63;;
84254;SDS011;74400;44.692;18.998;2024-02-14T10:27:37;9.75;;;5.43;;
84254;SDS011;74400;44.692;18.998;2024-02-14T10:30:05;9.82;;;5.35;;
84254;SDS011;74400;44.692;18.998;2024-02-14T10:32:34;7.18;;;5.25;;
84254;SDS011;74400;44.692;18.998;2024-02-14T10:35:00;7.40;;;4.50;;
84254;SDS011;74400;44.692;18.998;2024-02-14T10:37:27;7.78;;;4.85;;
84254;SDS011;74400;44.692;18.998;2024-02-14T10:39:55;6.70;;;4.60;;
84254;SDS011;74400;44.692;18.998;2024-02-14T10:42:22;7.05;;;4.97;;
84254;SDS011;74400;44.692;18.998;2024-02-14T10:44:48;7.05;;;4.70;;
84254;SDS011;74400;44.692;18.998;2024-02-14T10:47:36;7.28;;;5.20;;
84254;SDS011;74400;44.692;18.998;2024-02-14T10:50:02;7.30;;;4.65;;
84254;SDS011;74400;44.692;18.998;2024-02-14T10:52:31;10.27;;;5.18;;
84254;SDS011;74400;44.692;18.998;2024-02-14T10:55:03;7.25;;;4.75;;
84254;SDS011;74400;44.692;18.998;2024-02-14T10:57:33;8.75;;;4.82;;
84254;SDS011;74400;44.692;18.998;2024-02-14T11:00:05;6.28;;;4.25;;
84254;SDS011;74400;44.692;18.998;2024-02-14T11:02:33;8.27;;;4.80;;
84254;SDS011;74400;44.692;18.998;2024-02-14T11:04:59;8.13;;;4.40;;
84254;SDS011;74400;44.692;18.998;2024-02-14T11:07:27;7.70;;;4.75;;
84254;SDS011;74400;44.692;18.998;2024-02-14T11:10:00;9.60;;;4.47;;
84254;SDS011;74400;44.692;18.998;2024-02-14T11:12:36;7.75;;;4.68;;
84254;SDS011;74400;44.692;18.998;2024-02-14T11:17:33;7.15;;;4.72;;
84254;SDS011;74400;44.692;18.998;2024-02-14T11:19:59;6.72;;;4.43;;
84254;SDS011;74400;44.692;18.998;2024-02-14T11:22:25;8.40;;;5.28;;
84254;SDS011;74400;44.692;18.998;2024-02-14T11:24:51;8.07;;;5.30;;
84254;SDS011;74400;44.692;18.998;2024-02-14T11:27:18;6.78;;;4.95;;
84254;SDS011;74400;44.692;18.998;2024-02-14T11:29:52;7.57;;;4.88;;
84254;SDS011;74400;44.692;18.998;2024-02-14T11:32:21;7.07;;;4.70;;
84254;SDS011;74400;44.692;18.998;2024-02-14T11:34:54;5.65;;;3.80;;
84254;SDS011;74400;44.692;18.998;2024-02-14T11:37:27;5.70;;;3.88;;
84254;SDS011;74400;44.692;18.998;2024-02-14T11:39:54;6.35;;;4.03;;
84254;SDS011;74400;44.692;18.998;2024-02-14T11:42:23;5.80;;;4.40;;
84254;SDS011;74400;44.692;18.998;2024-02-14T11:44:49;6.93;;;4.82;;
84254;SDS011;74400;44.692;18.998;2024-02-14T11:47:15;5.20;;;3.47;;
84254;SDS011;74400;44.692;18.998;2024-02-14T11:49:41;9.38;;;4.70;;
84254;SDS011;74400;44.692;18.998;2024-02-14T11:54:33;8.63;;;5.05;;
84254;SDS011;74400;44.692;18.998;2024-02-14T11:57:00;8.45;;;4.82;;
84254;SDS011;74400;44.692;18.998;2024-02-14T11:59:25;9.88;;;5.70;;
84254;SDS011;74400;44.692;18.998;2024-02-14T12:01:51;14.82;;;8.68;;
84254;SDS011;74400;44.692;18.998;2024-02-14T12:04:19;6.93;;;4.82;;
84254;SDS011;74400;44.692;18.998;2024-02-14T12:06:45;5.28;;;3.58;;
84254;SDS011;74400;44.692;18.998;2024-02-14T12:09:11;6.38;;;3.80;;
84254;SDS011;74400;44.692;18.998;2024-02-14T12:11:38;5.97;;;3.40;;
84254;SDS011;74400;44.692;18.998;2024-02-14T12:14:09;3.80;;;3.40;;
84254;SDS011;74400;44.692;18.998;2024-02-14T12:16:38;6.45;;;3.55;;
84254;SDS011;74400;44.692;18.998;2024-02-14T12:19:06;8.43;;;4.15;;
84254;SDS011;74400;44.692;18.998;2024-02-14T12:21:35;5.72;;;3.70;;
84254;SDS011;74400;44.692;18.998;2024-02-14T12:24:01;5.55;;;4.07;;
84254;SDS011;74400;44.692;18.998;2024-02-14T12:26:29;6.10;;;3.90;;
84254;SDS011;74400;44.692;18.998;2024-02-14T12:28:56;6.07;;;3.72;;
84254;SDS011;74400;44.692;18.998;2024-02-14T12:31:22;5.32;;;3.40;;
84254;SDS011;74400;44.692;18.998;2024-02-14T12:33:48;5.68;;;3.58;;
84254;SDS011;74400;44.692;18.998;2024-02-14T12:36:14;5.45;;;3.63;;
84254;SDS011;74400;44.692;18.998;2024-02-14T12:38:40;6.38;;;4.45;;
84254;SDS011;74400;44.692;18.998;2024-02-14T12:41:06;6.28;;;3.88;;
84254;SDS011;74400;44.692;18.998;2024-02-14T12:43:32;5.43;;;3.65;;
84254;SDS011;74400;44.692;18.998;2024-02-14T12:45:57;5.03;;;3.70;;
84254;SDS011;74400;44.692;18.998;2024-02-14T12:48:24;6.28;;;4.63;;
84254;SDS011;74400;44.692;18.998;2024-02-14T12:50:53;5.93;;;4.07;;
84254;SDS011;74400;44.692;18.998;2024-02-14T12:53:20;6.78;;;4.07;;
84254;SDS011;74400;44.692;18.998;2024-02-14T12:55:48;5.65;;;4.13;;
84254;SDS011;74400;44.692;18.998;2024-02-14T12:58:16;7.57;;;4.55;;
84254;SDS011;74400;44.692;18.998;2024-02-14T13:00:42;8.57;;;5.18;;
84254;SDS011;74400;44.692;18.998;2024-02-14T13:03:10;7.25;;;4.93;;
84254;SDS011;74400;44.692;18.998;2024-02-14T13:05:36;5.93;;;3.97;;
84254;SDS011;74400;44.692;18.998;2024-02-14T13:08:03;6.70;;;3.85;;
84254;SDS011;74400;44.692;18.998;2024-02-14T13:10:29;6.15;;;3.80;;
84254;SDS011;74400;44.692;18.998;2024-02-14T13:12:56;8.32;;;4.85;;
84254;SDS011;74400;44.692;18.998;2024-02-14T13:15:22;6.45;;;4.53;;
84254;SDS011;74400;44.692;18.998;2024-02-14T13:17:51;9.93;;;6.18;;
84254;SDS011;74400;44.692;18.998;2024-02-14T13:20:16;6.80;;;4.28;;
84254;SDS011;74400;44.692;18.998;2024-02-14T13:22:42;9.25;;;4.30;;
84254;SDS011;74400;44.692;18.998;2024-02-14T13:25:08;7.00;;;4.28;;
84254;SDS011;74400;44.692;18.998;2024-02-14T13:27:34;6.28;;;4.20;;
84254;SDS011;74400;44.692;18.998;2024-02-14T13:30:01;6.63;;;4.00;;
84254;SDS011;74400;44.692;18.998;2024-02-14T13:32:27;7.53;;;4.57;;
84254;SDS011;74400;44.692;18.998;2024-02-14T13:34:53;6.53;;;4.25;;
84254;SDS011;74400;44.692;18.998;2024-02-14T13:37:19;7.05;;;4.03;;
84254;SDS011;74400;44.692;18.998;2024-02-14T13:39:46;6.57;;;3.85;;
84254;SDS011;74400;44.692;18.998;2024-02-14T13:42:12;7.60;;;3.92;;
84254;SDS011;74400;44.692;18.998;2024-02-14T13:44:38;8.75;;;4.55;;
84254;SDS011;74400;44.692;18.998;2024-02-14T13:47:04;6.90;;;3.92;;
84254;SDS011;74400;44.692;18.998;2024-02-14T13:49:30;6.10;;;3.63;;
84254;SDS011;74400;44.692;18.998;2024-02-14T13:51:55;5.95;;;3.28;;
84254;SDS011;74400;44.692;18.998;2024-02-14T13:54:23;6.68;;;3.90;;
84254;SDS011;74400;44.692;18.998;2024-02-14T13:56:49;6.05;;;3.42;;
84254;SDS011;74400;44.692;18.998;2024-02-14T13:59:15;6.05;;;3.80;;
84254;SDS011;74400;44.692;18.998;2024-02-14T14:01:42;6.00;;;3.25;;
84254;SDS011;74400;44.692;18.998;2024-02-14T14:04:11;4.10;;;2.75;;
84254;SDS011;74400;44.692;18.998;2024-02-14T14:06:38;5.22;;;2.63;;
84254;SDS011;74400;44.692;18.998;2024-02-14T14:09:04;3.97;;;2.55;;
84254;SDS011;74400;44.692;18.998;2024-02-14T14:11:33;4.13;;;2.40;;
84254;SDS011;74400;44.692;18.998;2024-02-14T14:13:59;6.40;;;2.55;;
84254;SDS011;74400;44.692;18.998;2024-02-14T14:16:27;4.18;;;2.80;;
84254;SDS011;74400;44.692;18.998;2024-02-14T14:18:53;5.03;;;3.20;;
84254;SDS011;74400;44.692;18.998;2024-02-14T14:21:18;6.15;;;3.65;;
84254;SDS011;74400;44.692;18.998;2024-02-14T14:23:44;6.72;;;3.05;;
84254;SDS011;74400;44.692;18.998;2024-02-14T14:26:10;3.45;;;2.22;;
84254;SDS011;74400;44.692;18.998;2024-02-14T14:28:36;4.18;;;2.75;;
84254;SDS011;74400;44.692;18.998;2024-02-14T14:31:02;6.35;;;2.58;;
84254;SDS011;74400;44.692;18.998;2024-02-14T14:33:28;5.05;;;3.35;;
84254;SDS011;74400;44.692;18.998;2024-02-14T14:35:54;4.57;;;3.08;;
84254;SDS011;74400;44.692;18.998;2024-02-14T14:38:23;7.72;;;3.30;;